sensor_id;sensor_type;location;lat;lon;timestamp;temperature;humidity
14144;DHT22;7152;48.348;10.980;2023-02-28T00:00:48;-0.70;99.90
14144;DHT22;7152;48.348;10.980;2023-02-28T00:03:14;-0.70;99.90
14144;DHT22;7152;48.348;10.980;2023-02-28T00:05:40;-0.70;99.90
14144;DHT22;7152;48.348;10.980;2023-02-28T00:08:07;-0.70;99.90
14144;DHT22;7152;48.348;10.980;2023-02-28T00:10:33;-0.70;99.90
14144;DHT22;7152;48.348;10.980;2023-02-28T00:13:01;-0.70;99.90
14144;DHT22;7152;48.348;10.980;2023-02-28T00:15:28;-0.80;99.90
14144;DHT22;7152;48.348;10.980;2023-02-28T00:17:53;-0.80;99.90
14144;DHT22;7152;48.348;10.980;2023-02-28T00:20:19;-0.80;99.90
14144;DHT22;7152;48.348;10.980;2023-02-28T00:22:48;-0.80;99.90
14144;DHT22;7152;48.348;10.980;2023-02-28T00:25:16;-0.80;99.90
14144;DHT22;7152;48.348;10.980;2023-02-28T00:27:43;-0.90;99.90
14144;DHT22;7152;48.348;10.980;2023-02-28T00:30:12;-0.90;99.90
14144;DHT22;7152;48.348;10.980;2023-02-28T00:32:38;-1.00;99.90
14144;DHT22;7152;48.348;10.980;2023-02-28T00:35:05;-1.00;99.90
14144;DHT22;7152;48.348;10.980;2023-02-28T00:37:31;-1.10;99.90
14144;DHT22;7152;48.348;10.980;2023-02-28T00:39:56;-1.10;99.90
14144;DHT22;7152;48.348;10.980;2023-02-28T00:42:23;-1.20;99.90
14144;DHT22;7152;48.348;10.980;2023-02-28T00:44:49;-1.20;99.90
14144;DHT22;7152;48.348;10.980;2023-02-28T00:47:15;-1.20;99.90
14144;DHT22;7152;48.348;10.980;2023-02-28T00:49:41;-1.20;99.90
14144;DHT22;7152;48.348;10.980;2023-02-28T00:52:06;-1.30;99.90
14144;DHT22;7152;48.348;10.980;2023-02-28T00:54:32;-1.30;99.90
14144;DHT22;7152;48.348;10.980;2023-02-28T00:56:59;-1.30;99.90
14144;DHT22;7152;48.348;10.980;2023-02-28T00:59:25;-1.40;99.90
14144;DHT22;7152;48.348;10.980;2023-02-28T01:01:51;-1.40;99.90
14144;DHT22;7152;48.348;10.980;2023-02-28T01:04:17;-1.40;99.90
14144;DHT22;7152;48.348;10.980;2023-02-28T01:06:42;-1.40;99.90
14144;DHT22;7152;48.348;10.980;2023-02-28T01:09:08;-1.40;99.90
14144;DHT22;7152;48.348;10.980;2023-02-28T01:11:34;-1.40;99.90
14144;DHT22;7152;48.348;10.980;2023-02-28T01:14:00;-1.40;99.90
14144;DHT22;7152;48.348;10.980;2023-02-28T01:16:27;-1.50;99.90
14144;DHT22;7152;48.348;10.980;2023-02-28T01:18:53;-1.50;99.90
14144;DHT22;7152;48.348;10.980;2023-02-28T01:21:20;-1.60;99.90
14144;DHT22;7152;48.348;10.980;2023-02-28T01:23:46;-1.60;99.90
14144;DHT22;7152;48.348;10.980;2023-02-28T01:26:15;-1.60;99.90
14144;DHT22;7152;48.348;10.980;2023-02-28T01:28:41;-1.60;99.90
14144;DHT22;7152;48.348;10.980;2023-02-28T01:31:08;-1.60;99.90
14144;DHT22;7152;48.348;10.980;2023-02-28T01:33:34;-1.60;99.90
14144;DHT22;7152;48.348;10.980;2023-02-28T01:36:00;-1.60;99.90
14144;DHT22;7152;48.348;10.980;2023-02-28T01:38:26;-1.60;99.90
14144;DHT22;7152;48.348;10.980;2023-02-28T01:40:52;-1.60;99.90
14144;DHT22;7152;48.348;10.980;2023-02-28T01:43:24;-1.60;99.90
14144;DHT22;7152;48.348;10.980;2023-02-28T01:45:52;-1.70;99.90
14144;DHT22;7152;48.348;10.980;2023-02-28T01:48:19;-1.60;99.90
14144;DHT22;7152;48.348;10.980;2023-02-28T01:50:47;-1.70;99.90
14144;DHT22;7152;48.348;10.980;2023-02-28T01:53:17;-1.70;99.90
14144;DHT22;7152;48.348;10.980;2023-02-28T01:55:47;-1.70;99.90
14144;DHT22;7152;48.348;10.980;2023-02-28T01:58:13;-1.70;99.90
14144;DHT22;7152;48.348;10.980;2023-02-28T02:00:39;-1.70;99.90
14144;DHT22;7152;48.348;10.980;2023-02-28T02:03:13;-1.70;99.90
14144;DHT22;7152;48.348;10.980;2023-02-28T02:05:41;-1.70;99.90
14144;DHT22;7152;48.348;10.980;2023-02-28T02:08:10;-1.70;99.90
14144;DHT22;7152;48.348;10.980;2023-02-28T02:10:42;-1.70;99.90
14144;DHT22;7152;48.348;10.980;2023-02-28T02:18:54;-1.70;99.90
14144;DHT22;7152;48.348;10.980;2023-02-28T02:27:15;-1.80;99.90
14144;DHT22;7152;48.348;10.980;2023-02-28T02:40:22;-1.80;99.90
14144;DHT22;7152;48.348;10.980;2023-02-28T02:42:54;-1.80;99.90
14144;DHT22;7152;48.348;10.980;2023-02-28T02:45:38;-1.80;99.90
14144;DHT22;7152;48.348;10.980;2023-02-28T02:48:08;-1.80;99.90
14144;DHT22;7152;48.348;10.980;2023-02-28T02:50:42;-1.80;99.90
14144;DHT22;7152;48.348;10.980;2023-02-28T02:53:10;-1.80;99.90
14144;DHT22;7152;48.348;10.980;2023-02-28T02:55:41;-1.80;99.90
14144;DHT22;7152;48.348;10.980;2023-02-28T02:58:11;-1.80;99.90
14144;DHT22;7152;48.348;10.980;2023-02-28T03:00:46;-1.80;99.90
14144;DHT22;7152;48.348;10.980;2023-02-28T03:03:14;-1.80;99.90
14144;DHT22;7152;48.348;10.980;2023-02-28T03:08:12;-1.80;99.90
14144;DHT22;7152;48.348;10.980;2023-02-28T03:10:46;-1.80;99.90
14144;DHT22;7152;48.348;10.980;2023-02-28T03:24:31;-1.60;99.90
14144;DHT22;7152;48.348;10.980;2023-02-28T03:27:17;-1.60;99.90
14144;DHT22;7152;48.348;10.980;2023-02-28T03:29:52;-1.60;99.90
14144;DHT22;7152;48.348;10.980;2023-02-28T03:32:51;-1.50;99.90
14144;DHT22;7152;48.348;10.980;2023-02-28T03:35:21;-1.50;99.90
14144;DHT22;7152;48.348;10.980;2023-02-28T03:37:58;-1.50;99.90
14144;DHT22;7152;48.348;10.980;2023-02-28T03:40:28;-1.40;99.90
14144;DHT22;7152;48.348;10.980;2023-02-28T03:43:00;-1.40;99.90
14144;DHT22;7152;48.348;10.980;2023-02-28T03:45:30;-1.40;99.90
14144;DHT22;7152;48.348;10.980;2023-02-28T03:48:13;-1.40;99.90
14144;DHT22;7152;48.348;10.980;2023-02-28T03:50:43;-1.40;99.90
14144;DHT22;7152;48.348;10.980;2023-02-28T03:53:17;-1.30;99.90
14144;DHT22;7152;48.348;10.980;2023-02-28T03:55:49;-1.30;99.90
14144;DHT22;7152;48.348;10.980;2023-02-28T03:58:32;-1.30;99.90
14144;DHT22;7152;48.348;10.980;2023-02-28T04:01:25;-1.20;99.90
14144;DHT22;7152;48.348;10.980;2023-02-28T04:03:53;-1.20;99.90
14144;DHT22;7152;48.348;10.980;2023-02-28T04:06:21;-1.20;99.90
14144;DHT22;7152;48.348;10.980;2023-02-28T04:08:48;-1.20;99.90
14144;DHT22;7152;48.348;10.980;2023-02-28T04:13:42;-1.20;99.90
14144;DHT22;7152;48.348;10.980;2023-02-28T04:16:08;-1.20;99.90
14144;DHT22;7152;48.348;10.980;2023-02-28T04:18:40;-1.10;99.90
14144;DHT22;7152;48.348;10.980;2023-02-28T04:21:07;-1.20;99.90
14144;DHT22;7152;48.348;10.980;2023-02-28T04:23:32;-1.10;99.90
14144;DHT22;7152;48.348;10.980;2023-02-28T04:25:58;-1.10;99.90
14144;DHT22;7152;48.348;10.980;2023-02-28T04:28:24;-1.20;99.90
14144;DHT22;7152;48.348;10.980;2023-02-28T04:31:02;-1.10;99.90
14144;DHT22;7152;48.348;10.980;2023-02-28T04:33:28;-1.10;99.90
14144;DHT22;7152;48.348;10.980;2023-02-28T04:36:02;-1.20;99.90
14144;DHT22;7152;48.348;10.980;2023-02-28T04:38:38;-1.10;99.90
14144;DHT22;7152;48.348;10.980;2023-02-28T04:41:05;-1.20;99.90
14144;DHT22;7152;48.348;10.980;2023-02-28T04:43:31;-1.10;99.90
14144;DHT22;7152;48.348;10.980;2023-02-28T04:46:00;-1.10;99.90
14144;DHT22;7152;48.348;10.980;2023-02-28T04:48:28;-1.10;99.90
14144;DHT22;7152;48.348;10.980;2023-02-28T04:50:55;-1.10;99.90
14144;DHT22;7152;48.348;10.980;2023-02-28T04:53:20;-1.10;99.90
14144;DHT22;7152;48.348;10.980;2023-02-28T04:55:46;-1.10;99.90
14144;DHT22;7152;48.348;10.980;2023-02-28T04:58:13;-1.10;99.90
14144;DHT22;7152;48.348;10.980;2023-02-28T05:00:39;-1.10;99.90
14144;DHT22;7152;48.348;10.980;2023-02-28T05:03:05;-1.10;99.90
14144;DHT22;7152;48.348;10.980;2023-02-28T05:05:31;-1.10;99.90
14144;DHT22;7152;48.348;10.980;2023-02-28T05:07:56;-1.10;99.90
14144;DHT22;7152;48.348;10.980;2023-02-28T05:10:22;-1.10;99.90
14144;DHT22;7152;48.348;10.980;2023-02-28T05:12:48;-1.20;99.90
14144;DHT22;7152;48.348;10.980;2023-02-28T05:15:15;-1.10;99.90
14144;DHT22;7152;48.348;10.980;2023-02-28T05:17:41;-1.20;99.90
14144;DHT22;7152;48.348;10.980;2023-02-28T05:20:07;-1.10;99.90
14144;DHT22;7152;48.348;10.980;2023-02-28T05:22:36;-1.10;99.90
14144;DHT22;7152;48.348;10.980;2023-02-28T05:25:03;-1.10;99.90
14144;DHT22;7152;48.348;10.980;2023-02-28T05:27:30;-1.10;99.90
14144;DHT22;7152;48.348;10.980;2023-02-28T05:29:56;-1.10;99.90
14144;DHT22;7152;48.348;10.980;2023-02-28T05:32:22;-1.10;99.90
14144;DHT22;7152;48.348;10.980;2023-02-28T05:34:47;-1.10;99.90
14144;DHT22;7152;48.348;10.980;2023-02-28T05:37:14;-1.10;99.90
14144;DHT22;7152;48.348;10.980;2023-02-28T05:39:40;-1.10;99.90
14144;DHT22;7152;48.348;10.980;2023-02-28T05:42:05;-1.10;99.90
14144;DHT22;7152;48.348;10.980;2023-02-28T05:44:32;-1.10;99.90
14144;DHT22;7152;48.348;10.980;2023-02-28T05:46:57;-1.10;99.90
14144;DHT22;7152;48.348;10.980;2023-02-28T05:49:23;-1.10;99.90
14144;DHT22;7152;48.348;10.980;2023-02-28T05:51:48;-1.10;99.90
14144;DHT22;7152;48.348;10.980;2023-02-28T05:54:14;-1.10;99.90
14144;DHT22;7152;48.348;10.980;2023-02-28T05:56:40;-1.10;99.90
14144;DHT22;7152;48.348;10.980;2023-02-28T05:59:09;-1.10;99.90
14144;DHT22;7152;48.348;10.980;2023-02-28T06:01:37;-1.10;99.90
14144;DHT22;7152;48.348;10.980;2023-02-28T06:04:05;-1.10;99.90
14144;DHT22;7152;48.348;10.980;2023-02-28T06:06:31;-1.10;99.90
14144;DHT22;7152;48.348;10.980;2023-02-28T06:08:59;-1.10;99.90
14144;DHT22;7152;48.348;10.980;2023-02-28T06:11:25;-1.10;99.90
14144;DHT22;7152;48.348;10.980;2023-02-28T06:13:56;-1.10;99.90
14144;DHT22;7152;48.348;10.980;2023-02-28T06:16:22;-1.10;99.90
14144;DHT22;7152;48.348;10.980;2023-02-28T06:18:48;-1.10;99.90
14144;DHT22;7152;48.348;10.980;2023-02-28T06:21:13;-1.10;99.90
14144;DHT22;7152;48.348;10.980;2023-02-28T06:23:39;-1.00;99.90
14144;DHT22;7152;48.348;10.980;2023-02-28T06:26:05;-1.10;99.90
14144;DHT22;7152;48.348;10.980;2023-02-28T06:28:31;-1.00;99.90
14144;DHT22;7152;48.348;10.980;2023-02-28T06:30:57;-1.00;99.90
14144;DHT22;7152;48.348;10.980;2023-02-28T06:33:22;-1.00;99.90
14144;DHT22;7152;48.348;10.980;2023-02-28T06:35:51;-1.00;99.90
14144;DHT22;7152;48.348;10.980;2023-02-28T06:38:17;-1.00;99.90
14144;DHT22;7152;48.348;10.980;2023-02-28T06:40:44;-0.90;99.90
14144;DHT22;7152;48.348;10.980;2023-02-28T06:43:09;-0.90;99.90
14144;DHT22;7152;48.348;10.980;2023-02-28T06:45:42;-0.90;99.90
14144;DHT22;7152;48.348;10.980;2023-02-28T06:48:08;-0.90;99.90
14144;DHT22;7152;48.348;10.980;2023-02-28T06:50:33;-0.80;99.90
14144;DHT22;7152;48.348;10.980;2023-02-28T06:52:59;-0.80;99.90
14144;DHT22;7152;48.348;10.980;2023-02-28T06:55:25;-0.80;99.90
14144;DHT22;7152;48.348;10.980;2023-02-28T06:57:50;-0.80;99.90
14144;DHT22;7152;48.348;10.980;2023-02-28T07:00:16;-0.70;99.90
14144;DHT22;7152;48.348;10.980;2023-02-28T07:02:42;-0.70;99.90
14144;DHT22;7152;48.348;10.980;2023-02-28T07:05:08;-0.70;99.90
14144;DHT22;7152;48.348;10.980;2023-02-28T07:07:33;-0.70;99.90
14144;DHT22;7152;48.348;10.980;2023-02-28T07:10:01;-0.60;99.90
14144;DHT22;7152;48.348;10.980;2023-02-28T07:12:27;-0.60;99.90
14144;DHT22;7152;48.348;10.980;2023-02-28T07:14:52;-0.60;99.90
14144;DHT22;7152;48.348;10.980;2023-02-28T07:17:19;-0.60;99.90
14144;DHT22;7152;48.348;10.980;2023-02-28T07:19:45;-0.60;99.90
14144;DHT22;7152;48.348;10.980;2023-02-28T07:22:10;-0.50;99.90
14144;DHT22;7152;48.348;10.980;2023-02-28T07:24:36;-0.50;99.90
14144;DHT22;7152;48.348;10.980;2023-02-28T07:27:02;-0.50;99.90
14144;DHT22;7152;48.348;10.980;2023-02-28T07:29:28;-0.50;99.90
14144;DHT22;7152;48.348;10.980;2023-02-28T07:31:54;-0.40;99.90
14144;DHT22;7152;48.348;10.980;2023-02-28T07:34:21;-0.30;99.90
14144;DHT22;7152;48.348;10.980;2023-02-28T07:36:47;-0.30;99.90
14144;DHT22;7152;48.348;10.980;2023-02-28T07:39:12;-0.30;99.90
14144;DHT22;7152;48.348;10.980;2023-02-28T07:41:38;-0.30;99.90
14144;DHT22;7152;48.348;10.980;2023-02-28T07:44:09;-0.20;99.90
14144;DHT22;7152;48.348;10.980;2023-02-28T07:46:35;-0.30;99.90
14144;DHT22;7152;48.348;10.980;2023-02-28T07:49:02;-0.20;99.90
14144;DHT22;7152;48.348;10.980;2023-02-28T07:51:29;-0.20;99.90
14144;DHT22;7152;48.348;10.980;2023-02-28T07:53:55;-0.20;99.90
14144;DHT22;7152;48.348;10.980;2023-02-28T07:56:21;-0.20;99.90
14144;DHT22;7152;48.348;10.980;2023-02-28T07:58:47;-0.20;99.90
14144;DHT22;7152;48.348;10.980;2023-02-28T08:01:13;-0.20;99.90
14144;DHT22;7152;48.348;10.980;2023-02-28T08:03:39;-0.20;99.90
14144;DHT22;7152;48.348;10.980;2023-02-28T08:06:06;-0.10;99.90
14144;DHT22;7152;48.348;10.980;2023-02-28T08:08:32;0.00;99.90
14144;DHT22;7152;48.348;10.980;2023-02-28T08:11:02;0.10;99.90
14144;DHT22;7152;48.348;10.980;2023-02-28T08:13:29;0.20;99.90
14144;DHT22;7152;48.348;10.980;2023-02-28T08:15:55;0.30;99.90
14144;DHT22;7152;48.348;10.980;2023-02-28T08:18:22;0.40;99.90
14144;DHT22;7152;48.348;10.980;2023-02-28T08:20:48;0.50;99.90
14144;DHT22;7152;48.348;10.980;2023-02-28T08:23:14;0.60;99.90
14144;DHT22;7152;48.348;10.980;2023-02-28T08:25:40;0.60;99.90
14144;DHT22;7152;48.348;10.980;2023-02-28T08:28:05;0.70;99.90
14144;DHT22;7152;48.348;10.980;2023-02-28T08:30:31;0.70;99.90
14144;DHT22;7152;48.348;10.980;2023-02-28T08:32:57;0.70;99.90
14144;DHT22;7152;48.348;10.980;2023-02-28T08:35:22;0.80;99.90
14144;DHT22;7152;48.348;10.980;2023-02-28T08:37:49;0.80;99.90
14144;DHT22;7152;48.348;10.980;2023-02-28T08:40:15;0.80;99.90
14144;DHT22;7152;48.348;10.980;2023-02-28T08:42:46;0.90;99.90
14144;DHT22;7152;48.348;10.980;2023-02-28T08:45:13;1.00;99.90
14144;DHT22;7152;48.348;10.980;2023-02-28T08:47:39;1.00;99.90
14144;DHT22;7152;48.348;10.980;2023-02-28T08:50:05;1.10;99.90
14144;DHT22;7152;48.348;10.980;2023-02-28T08:52:31;1.20;99.90
14144;DHT22;7152;48.348;10.980;2023-02-28T08:54:57;1.20;99.90
14144;DHT22;7152;48.348;10.980;2023-02-28T08:57:22;1.30;99.90
14144;DHT22;7152;48.348;10.980;2023-02-28T08:59:48;1.40;99.90
14144;DHT22;7152;48.348;10.980;2023-02-28T09:02:14;1.40;99.90
14144;DHT22;7152;48.348;10.980;2023-02-28T09:04:40;1.50;99.90
14144;DHT22;7152;48.348;10.980;2023-02-28T09:07:07;1.60;99.90
14144;DHT22;7152;48.348;10.980;2023-02-28T09:09:32;1.60;99.90
14144;DHT22;7152;48.348;10.980;2023-02-28T09:11:58;1.70;99.90
14144;DHT22;7152;48.348;10.980;2023-02-28T09:14:24;1.70;99.90
14144;DHT22;7152;48.348;10.980;2023-02-28T09:16:49;1.70;99.90
14144;DHT22;7152;48.348;10.980;2023-02-28T09:19:15;1.90;99.90
14144;DHT22;7152;48.348;10.980;2023-02-28T09:21:41;2.00;99.90
14144;DHT22;7152;48.348;10.980;2023-02-28T09:24:07;2.10;99.90
14144;DHT22;7152;48.348;10.980;2023-02-28T09:26:33;2.20;99.90
14144;DHT22;7152;48.348;10.980;2023-02-28T09:28:59;2.30;99.90
14144;DHT22;7152;48.348;10.980;2023-02-28T09:31:27;2.30;99.90
14144;DHT22;7152;48.348;10.980;2023-02-28T09:33:55;2.10;99.90
14144;DHT22;7152;48.348;10.980;2023-02-28T09:36:23;2.20;99.90
14144;DHT22;7152;48.348;10.980;2023-02-28T09:38:49;2.10;99.90
14144;DHT22;7152;48.348;10.980;2023-02-28T09:41:24;2.10;99.90
14144;DHT22;7152;48.348;10.980;2023-02-28T09:43:55;2.30;99.90
14144;DHT22;7152;48.348;10.980;2023-02-28T09:46:35;2.30;99.90
14144;DHT22;7152;48.348;10.980;2023-02-28T09:49:11;2.30;99.90
14144;DHT22;7152;48.348;10.980;2023-02-28T09:51:58;2.30;99.90
14144;DHT22;7152;48.348;10.980;2023-02-28T09:54:28;2.20;99.90
14144;DHT22;7152;48.348;10.980;2023-02-28T09:57:04;2.30;99.90
14144;DHT22;7152;48.348;10.980;2023-02-28T10:04:59;2.60;99.90
14144;DHT22;7152;48.348;10.980;2023-02-28T10:07:59;2.60;99.90
14144;DHT22;7152;48.348;10.980;2023-02-28T10:12:58;2.60;99.90
14144;DHT22;7152;48.348;10.980;2023-02-28T10:15:29;2.60;99.90
14144;DHT22;7152;48.348;10.980;2023-02-28T10:17:59;2.80;99.90
14144;DHT22;7152;48.348;10.980;2023-02-28T10:20:26;2.80;99.90
14144;DHT22;7152;48.348;10.980;2023-02-28T10:23:21;2.90;99.90
14144;DHT22;7152;48.348;10.980;2023-02-28T10:25:57;2.80;99.90
14144;DHT22;7152;48.348;10.980;2023-02-28T10:28:24;2.80;99.90
14144;DHT22;7152;48.348;10.980;2023-02-28T10:30:52;2.60;99.90
14144;DHT22;7152;48.348;10.980;2023-02-28T10:33:35;2.60;99.90
14144;DHT22;7152;48.348;10.980;2023-02-28T10:36:02;2.50;99.90
14144;DHT22;7152;48.348;10.980;2023-02-28T10:38:36;2.60;99.90
14144;DHT22;7152;48.348;10.980;2023-02-28T10:41:06;2.80;99.90
14144;DHT22;7152;48.348;10.980;2023-02-28T10:43:32;3.00;99.90
14144;DHT22;7152;48.348;10.980;2023-02-28T10:51:01;3.40;99.90
14144;DHT22;7152;48.348;10.980;2023-02-28T10:53:37;3.50;99.90
14144;DHT22;7152;48.348;10.980;2023-02-28T11:03:46;3.40;99.90
14144;DHT22;7152;48.348;10.980;2023-02-28T11:08:54;3.40;99.90
14144;DHT22;7152;48.348;10.980;2023-02-28T11:11:22;3.40;99.90
14144;DHT22;7152;48.348;10.980;2023-02-28T11:13:52;3.50;99.90
14144;DHT22;7152;48.348;10.980;2023-02-28T11:16:19;3.50;99.90
14144;DHT22;7152;48.348;10.980;2023-02-28T11:18:55;3.50;99.90
14144;DHT22;7152;48.348;10.980;2023-02-28T11:21:27;3.50;99.90
14144;DHT22;7152;48.348;10.980;2023-02-28T11:24:04;3.40;99.90
14144;DHT22;7152;48.348;10.980;2023-02-28T11:26:44;3.50;99.90
14144;DHT22;7152;48.348;10.980;2023-02-28T11:34:31;4.10;99.90
14144;DHT22;7152;48.348;10.980;2023-02-28T11:36:58;4.20;99.90
14144;DHT22;7152;48.348;10.980;2023-02-28T11:39:25;4.20;99.90
14144;DHT22;7152;48.348;10.980;2023-02-28T11:52:29;4.20;99.90
14144;DHT22;7152;48.348;10.980;2023-02-28T12:05:46;5.30;99.90
14144;DHT22;7152;48.348;10.980;2023-02-28T12:14:25;6.00;99.90
14144;DHT22;7152;48.348;10.980;2023-02-28T12:22:57;6.80;99.90
14144;DHT22;7152;48.348;10.980;2023-02-28T12:26:00;7.00;99.90
14144;DHT22;7152;48.348;10.980;2023-02-28T12:28:27;7.40;99.90
14144;DHT22;7152;48.348;10.980;2023-02-28T12:31:18;7.50;99.90
14144;DHT22;7152;48.348;10.980;2023-02-28T12:33:51;7.80;99.90
14144;DHT22;7152;48.348;10.980;2023-02-28T12:36:19;8.00;99.90
14144;DHT22;7152;48.348;10.980;2023-02-28T12:39:06;8.00;99.90
14144;DHT22;7152;48.348;10.980;2023-02-28T12:41:50;8.30;99.90
14144;DHT22;7152;48.348;10.980;2023-02-28T12:46:55;8.60;99.90
14144;DHT22;7152;48.348;10.980;2023-02-28T12:49:39;9.00;99.90
14144;DHT22;7152;48.348;10.980;2023-02-28T12:52:08;9.30;99.90
14144;DHT22;7152;48.348;10.980;2023-02-28T13:00:03;9.70;99.90
14144;DHT22;7152;48.348;10.980;2023-02-28T13:05:10;10.50;99.90
14144;DHT22;7152;48.348;10.980;2023-02-28T13:08:07;10.60;99.90
14144;DHT22;7152;48.348;10.980;2023-02-28T13:10:46;11.00;99.90
14144;DHT22;7152;48.348;10.980;2023-02-28T13:13:26;11.10;99.90
14144;DHT22;7152;48.348;10.980;2023-02-28T13:16:08;10.80;99.90
14144;DHT22;7152;48.348;10.980;2023-02-28T13:18:37;10.60;99.90
14144;DHT22;7152;48.348;10.980;2023-02-28T13:21:07;10.70;99.90
14144;DHT22;7152;48.348;10.980;2023-02-28T13:23:40;10.50;99.90
14144;DHT22;7152;48.348;10.980;2023-02-28T13:26:06;10.50;99.90
14144;DHT22;7152;48.348;10.980;2023-02-28T13:31:16;11.10;99.10
14144;DHT22;7152;48.348;10.980;2023-02-28T13:38:42;11.60;98.80
14144;DHT22;7152;48.348;10.980;2023-02-28T13:41:46;11.80;99.10
14144;DHT22;7152;48.348;10.980;2023-02-28T13:44:21;12.20;97.00
14144;DHT22;7152;48.348;10.980;2023-02-28T14:05:29;12.70;96.70
14144;DHT22;7152;48.348;10.980;2023-02-28T14:07:59;13.10;98.40
14144;DHT22;7152;48.348;10.980;2023-02-28T14:10:32;13.30;97.60
14144;DHT22;7152;48.348;10.980;2023-02-28T14:18:00;14.00;94.80
14144;DHT22;7152;48.348;10.980;2023-02-28T14:20:30;14.10;95.20
14144;DHT22;7152;48.348;10.980;2023-02-28T14:26:31;13.10;93.50
14144;DHT22;7152;48.348;10.980;2023-02-28T14:31:32;12.90;94.20
14144;DHT22;7152;48.348;10.980;2023-02-28T14:36:30;13.50;94.40
14144;DHT22;7152;48.348;10.980;2023-02-28T14:39:11;13.80;93.90
14144;DHT22;7152;48.348;10.980;2023-02-28T14:41:39;13.50;91.90
14144;DHT22;7152;48.348;10.980;2023-02-28T14:44:25;13.40;92.90
14144;DHT22;7152;48.348;10.980;2023-02-28T14:46:54;13.50;91.90
14144;DHT22;7152;48.348;10.980;2023-02-28T14:49:20;13.40;92.90
14144;DHT22;7152;48.348;10.980;2023-02-28T14:51:49;13.20;92.90
14144;DHT22;7152;48.348;10.980;2023-02-28T14:54:18;12.90;92.80
14144;DHT22;7152;48.348;10.980;2023-02-28T14:56:49;12.30;92.20
14144;DHT22;7152;48.348;10.980;2023-02-28T15:01:49;11.20;91.60
14144;DHT22;7152;48.348;10.980;2023-02-28T15:04:24;10.50;92.20
14144;DHT22;7152;48.348;10.980;2023-02-28T15:07:10;10.20;92.60
14144;DHT22;7152;48.348;10.980;2023-02-28T15:09:35;9.70;93.10
14144;DHT22;7152;48.348;10.980;2023-02-28T15:12:01;9.30;93.50
14144;DHT22;7152;48.348;10.980;2023-02-28T15:14:27;8.90;93.60
14144;DHT22;7152;48.348;10.980;2023-02-28T15:17:00;8.70;93.90
14144;DHT22;7152;48.348;10.980;2023-02-28T15:22:04;8.00;94.10
14144;DHT22;7152;48.348;10.980;2023-02-28T15:24:42;7.70;94.40
14144;DHT22;7152;48.348;10.980;2023-02-28T15:27:33;7.50;94.70
14144;DHT22;7152;48.348;10.980;2023-02-28T15:30:01;7.20;94.90
14144;DHT22;7152;48.348;10.980;2023-02-28T15:32:31;7.00;95.20
14144;DHT22;7152;48.348;10.980;2023-02-28T15:34:58;6.90;95.40
14144;DHT22;7152;48.348;10.980;2023-02-28T15:37:37;6.90;95.80
14144;DHT22;7152;48.348;10.980;2023-02-28T15:40:29;6.80;95.90
14144;DHT22;7152;48.348;10.980;2023-02-28T15:42:59;6.70;96.20
14144;DHT22;7152;48.348;10.980;2023-02-28T15:48:36;6.70;96.30
14144;DHT22;7152;48.348;10.980;2023-02-28T15:51:08;6.60;96.40
14144;DHT22;7152;48.348;10.980;2023-02-28T15:53:45;6.50;96.50
14144;DHT22;7152;48.348;10.980;2023-02-28T15:56:29;6.30;96.50
14144;DHT22;7152;48.348;10.980;2023-02-28T15:59:02;6.10;96.70
14144;DHT22;7152;48.348;10.980;2023-02-28T16:01:34;5.80;96.90
14144;DHT22;7152;48.348;10.980;2023-02-28T16:04:03;5.70;97.30
14144;DHT22;7152;48.348;10.980;2023-02-28T16:09:08;5.40;97.60
14144;DHT22;7152;48.348;10.980;2023-02-28T16:11:37;5.30;97.90
14144;DHT22;7152;48.348;10.980;2023-02-28T16:14:04;5.10;98.10
14144;DHT22;7152;48.348;10.980;2023-02-28T16:16:31;5.00;98.20
14144;DHT22;7152;48.348;10.980;2023-02-28T16:18:57;4.80;98.50
14144;DHT22;7152;48.348;10.980;2023-02-28T16:21:24;4.70;98.70
14144;DHT22;7152;48.348;10.980;2023-02-28T16:23:50;4.50;98.90
14144;DHT22;7152;48.348;10.980;2023-02-28T16:26:21;4.40;99.00
14144;DHT22;7152;48.348;10.980;2023-02-28T16:28:48;4.30;99.50
14144;DHT22;7152;48.348;10.980;2023-02-28T16:31:14;4.20;99.50
14144;DHT22;7152;48.348;10.980;2023-02-28T16:33:42;4.10;99.80
14144;DHT22;7152;48.348;10.980;2023-02-28T16:36:21;3.90;99.90
14144;DHT22;7152;48.348;10.980;2023-02-28T16:38:48;3.90;99.90
14144;DHT22;7152;48.348;10.980;2023-02-28T16:41:20;3.80;99.90
14144;DHT22;7152;48.348;10.980;2023-02-28T16:43:49;3.70;99.90
14144;DHT22;7152;48.348;10.980;2023-02-28T16:46:16;3.60;99.90
14144;DHT22;7152;48.348;10.980;2023-02-28T16:48:42;3.60;99.90
14144;DHT22;7152;48.348;10.980;2023-02-28T16:51:12;3.40;99.90
14144;DHT22;7152;48.348;10.980;2023-02-28T16:53:38;3.50;99.90
14144;DHT22;7152;48.348;10.980;2023-02-28T16:56:04;3.30;99.90
14144;DHT22;7152;48.348;10.980;2023-02-28T16:58:32;3.20;99.90
14144;DHT22;7152;48.348;10.980;2023-02-28T17:01:01;3.10;99.90
14144;DHT22;7152;48.348;10.980;2023-02-28T17:03:28;3.00;99.90
14144;DHT22;7152;48.348;10.980;2023-02-28T17:05:54;3.00;99.90
14144;DHT22;7152;48.348;10.980;2023-02-28T17:08:20;2.90;99.90
14144;DHT22;7152;48.348;10.980;2023-02-28T17:10:45;2.80;99.90
14144;DHT22;7152;48.348;10.980;2023-02-28T17:13:11;2.60;99.90
14144;DHT22;7152;48.348;10.980;2023-02-28T17:15:37;2.50;99.90
14144;DHT22;7152;48.348;10.980;2023-02-28T17:18:03;2.50;99.90
14144;DHT22;7152;48.348;10.980;2023-02-28T17:20:29;2.40;99.90
14144;DHT22;7152;48.348;10.980;2023-02-28T17:22:56;2.30;99.90
14144;DHT22;7152;48.348;10.980;2023-02-28T17:25:23;2.30;99.90
14144;DHT22;7152;48.348;10.980;2023-02-28T17:27:49;2.20;99.90
14144;DHT22;7152;48.348;10.980;2023-02-28T17:30:19;2.20;99.90
14144;DHT22;7152;48.348;10.980;2023-02-28T17:32:46;2.10;99.90
14144;DHT22;7152;48.348;10.980;2023-02-28T17:35:12;2.10;99.90
14144;DHT22;7152;48.348;10.980;2023-02-28T17:37:38;2.00;99.90
14144;DHT22;7152;48.348;10.980;2023-02-28T17:40:04;1.90;99.90
14144;DHT22;7152;48.348;10.980;2023-02-28T17:42:30;1.90;99.90
14144;DHT22;7152;48.348;10.980;2023-02-28T17:44:56;1.90;99.90
14144;DHT22;7152;48.348;10.980;2023-02-28T17:47:22;1.80;99.90
14144;DHT22;7152;48.348;10.980;2023-02-28T17:49:47;1.70;99.90
14144;DHT22;7152;48.348;10.980;2023-02-28T17:52:13;1.70;99.90
14144;DHT22;7152;48.348;10.980;2023-02-28T17:54:38;1.60;99.90
14144;DHT22;7152;48.348;10.980;2023-02-28T17:57:04;1.60;99.90
14144;DHT22;7152;48.348;10.980;2023-02-28T17:59:30;1.50;99.90
14144;DHT22;7152;48.348;10.980;2023-02-28T18:02:02;1.50;99.90
14144;DHT22;7152;48.348;10.980;2023-02-28T18:04:29;1.50;99.90
14144;DHT22;7152;48.348;10.980;2023-02-28T18:06:55;1.40;99.90
14144;DHT22;7152;48.348;10.980;2023-02-28T18:09:25;1.40;99.90
14144;DHT22;7152;48.348;10.980;2023-02-28T18:11:52;1.30;99.90
14144;DHT22;7152;48.348;10.980;2023-02-28T18:14:20;1.30;99.90
14144;DHT22;7152;48.348;10.980;2023-02-28T18:16:46;1.30;99.90
14144;DHT22;7152;48.348;10.980;2023-02-28T18:19:12;1.20;99.90
14144;DHT22;7152;48.348;10.980;2023-02-28T18:21:43;1.20;99.90
14144;DHT22;7152;48.348;10.980;2023-02-28T18:24:09;1.20;99.90
14144;DHT22;7152;48.348;10.980;2023-02-28T18:26:36;1.20;99.90
14144;DHT22;7152;48.348;10.980;2023-02-28T18:29:02;1.10;99.90
14144;DHT22;7152;48.348;10.980;2023-02-28T18:31:28;1.10;99.90